Time;durP1;ratioP1;P1;durP2;ratioP2;P2;SDS_P1;SDS_P2;PMS_P1;PMS_P2;Temp;Humidity;BMP_temperature;BMP_pressure;BME280_temperature;BME280_humidity;BME280_pressure;Samples;Min_cycle;Max_cycle;Signal;HPM_P1;HPM_P2
2021/04/08 00:01:58;;;;;;;3.57;2.07;;;22.00;49.10;;;;;;5047837;28;20421;-82
2021/04/08 00:04:24;;;;;;;2.53;1.80;;;22.00;48.70;;;;;;5048055;28;20195;-82
2021/04/08 00:06:50;;;;;;;3.50;2.27;;;22.00;49.20;;;;;;5047610;28;20425;-82
2021/04/08 00:09:15;;;;;;;3.00;2.20;;;22.00;48.70;;;;;;5065145;28;20201;-82
2021/04/08 00:11:41;;;;;;;3.60;2.10;;;22.00;48.80;;;;;;5065798;28;20171;-82
2021/04/08 00:14:07;;;;;;;2.70;2.00;;;22.00;48.70;;;;;;5065449;28;20559;-82
2021/04/08 00:16:33;;;;;;;2.93;1.90;;;22.00;48.70;;;;;;5047186;28;20186;-82
2021/04/08 00:18:58;;;;;;;2.87;2.57;;;22.00;48.80;;;;;;5047783;28;20422;-81
2021/04/08 00:21:24;;;;;;;2.67;2.10;;;22.00;48.60;;;;;;5065683;28;20175;-82
2021/04/08 00:23:50;;;;;;;3.40;1.90;;;22.00;48.80;;;;;;5065529;28;20190;-82
2021/04/08 00:26:15;;;;;;;3.93;2.30;;;22.00;48.80;;;;;;5066187;28;20171;-81
2021/04/08 00:28:41;;;;;;;3.70;2.20;;;22.00;48.70;;;;;;5065443;28;20405;-81
2021/04/08 00:31:07;;;;;;;3.57;2.10;;;22.00;48.70;;;;;;5065824;28;20177;-81
2021/04/08 00:33:32;;;;;;;5.07;2.30;;;22.00;48.80;;;;;;5047291;28;20181;-81
2021/04/08 00:35:59;;;;;;;3.23;1.83;;;22.00;48.80;;;;;;5065995;28;20182;-82
2021/04/08 00:38:25;;;;;;;3.73;1.80;;;22.00;48.90;;;;;;5065050;28;20186;-82
2021/04/08 00:40:51;;;;;;;4.67;2.27;;;22.00;48.80;;;;;;5064759;28;20409;-82
2021/04/08 00:43:18;;;;;;;3.17;2.10;;;21.90;48.70;;;;;;5064777;28;20191;-82
2021/04/08 00:45:44;;;;;;;3.70;1.93;;;21.90;48.60;;;;;;5047813;28;20269;-81
2021/04/08 00:48:09;;;;;;;3.50;2.23;;;21.90;48.80;;;;;;5069005;28;20394;-82
2021/04/08 00:50:35;;;;;;;2.87;2.07;;;21.90;48.60;;;;;;5069101;28;20261;-82
2021/04/08 00:53:07;;;;;;;3.47;2.20;;;21.90;48.70;;;;;;5068379;28;20167;-82
2021/04/08 00:55:56;;;;;;;3.70;2.37;;;21.90;48.60;;;;;;5051283;28;20261;-82
2021/04/08 00:58:23;;;;;;;3.10;1.70;;;21.90;48.60;;;;;;5063678;28;20559;-82
2021/04/08 01:00:50;;;;;;;2.90;1.97;;;21.90;48.60;;;;;;5068819;28;20978;-82
2021/04/08 01:03:16;;;;;;;3.00;1.97;;;21.90;48.60;;;;;;5067599;28;20800;-82
2021/04/08 01:05:43;;;;;;;3.83;2.20;;;21.90;48.70;;;;;;5051202;28;20405;-82
2021/04/08 01:08:09;;;;;;;2.13;1.80;;;21.90;48.60;;;;;;5050730;28;20413;-82
2021/04/08 01:10:35;;;;;;;2.73;2.00;;;21.90;48.70;;;;;;5069034;28;20462;-82
2021/04/08 01:13:15;;;;;;;2.50;2.00;;;21.90;48.80;;;;;;5051153;28;20577;-82
2021/04/08 01:15:41;;;;;;;3.80;1.90;;;21.90;48.70;;;;;;5050777;28;20183;-82
2021/04/08 01:18:26;;;;;;;3.33;2.00;;;21.90;48.70;;;;;;5050740;28;20915;-82
2021/04/08 01:20:57;;;;;;;3.47;2.03;;;21.90;48.60;;;;;;5050559;28;20410;-81
2021/04/08 01:23:56;;;;;;;3.77;2.20;;;21.90;48.60;;;;;;5068291;28;20473;-82
2021/04/08 01:26:57;;;;;;;4.43;2.03;;;21.90;48.50;;;;;;5050348;28;20408;-82
2021/04/08 01:29:32;;;;;;;2.80;1.73;;;21.90;48.60;;;;;;5069017;28;20409;-83
2021/04/08 01:32:01;;;;;;;4.50;2.43;;;21.90;48.70;;;;;;5068153;28;20409;-83
2021/04/08 01:34:29;;;;;;;2.17;1.50;;;21.90;48.60;;;;;;5076944;28;20512;-82
2021/04/08 01:36:59;;;;;;;2.97;2.07;;;21.90;48.70;;;;;;5067586;28;20412;-82
2021/04/08 01:39:26;;;;;;;3.30;1.80;;;21.90;48.70;;;;;;5067663;28;20429;-82
2021/04/08 01:41:54;;;;;;;1.83;1.50;;;21.90;48.70;;;;;;5067012;28;20421;-82
2021/04/08 01:44:22;;;;;;;3.90;1.90;;;21.90;48.70;;;;;;5066721;28;20464;-82
2021/04/08 01:46:56;;;;;;;2.30;1.60;;;21.90;48.60;;;;;;5049991;28;20468;-83
2021/04/08 01:49:25;;;;;;;3.03;1.97;;;21.90;48.60;;;;;;5050289;28;20412;-83
2021/04/08 01:51:52;;;;;;;2.67;1.80;;;21.70;48.50;;;;;;5057940;28;20529;-82
2021/04/08 01:54:19;;;;;;;1.87;1.67;;;21.90;48.60;;;;;;5073151;28;20942;-82
2021/04/08 01:56:46;;;;;;;3.43;1.83;;;21.90;48.70;;;;;;5087731;28;20837;-82
2021/04/08 01:59:14;;;;;;;2.77;1.80;;;21.90;48.60;;;;;;5088007;28;20425;-82
2021/04/08 02:01:42;;;;;;;2.03;1.67;;;21.90;48.60;;;;;;5070070;28;20416;-82
2021/04/08 02:04:10;;;;;;;2.97;1.80;;;21.90;48.60;;;;;;5069498;28;20492;-81
2021/04/08 02:06:36;;;;;;;3.63;1.40;;;21.90;48.60;;;;;;5087793;28;20470;-81
2021/04/08 02:09:04;;;;;;;2.17;1.73;;;21.90;48.70;;;;;;5086602;28;20412;-82
2021/04/08 02:11:31;;;;;;;3.03;1.47;;;21.90;48.70;;;;;;5072634;28;20448;-85
2021/04/08 02:13:57;;;;;;;2.70;1.47;;;22.10;49.00;;;;;;5090555;28;20452;-85
2021/04/08 02:16:49;;;;;;;1.77;1.60;;;21.70;48.60;;;;;;5090962;28;20468;-85
2021/04/08 02:19:17;;;;;;;2.23;1.77;;;21.90;48.60;;;;;;5073389;28;20443;-84
2021/04/08 02:21:47;;;;;;;2.57;1.90;;;21.80;48.60;;;;;;5073764;28;20408;-85
2021/04/08 02:24:14;;;;;;;2.50;1.53;;;21.80;48.80;;;;;;5073106;28;20460;-85
2021/04/08 02:26:46;;;;;;;1.80;1.60;;;21.80;48.70;;;;;;5090239;28;20401;-85
2021/04/08 02:29:18;;;;;;;1.60;1.40;;;21.80;48.70;;;;;;5072547;28;20389;-86
2021/04/08 02:31:45;;;;;;;3.30;1.83;;;21.80;49.00;;;;;;5090516;28;20420;-85
2021/04/08 02:34:11;;;;;;;2.03;1.60;;;21.80;48.80;;;;;;5072439;28;20421;-85
2021/04/08 02:36:38;;;;;;;2.30;1.80;;;21.70;49.30;;;;;;5072202;28;20409;-85
2021/04/08 02:39:08;;;;;;;2.60;1.90;;;21.70;48.80;;;;;;5072273;28;20428;-85
2021/04/08 02:41:42;;;;;;;2.90;1.50;;;21.70;48.80;;;;;;5072706;28;20405;-85
2021/04/08 02:44:08;;;;;;;2.23;1.43;;;21.70;48.90;;;;;;5073310;28;20448;-84
2021/04/08 02:46:34;;;;;;;1.67;1.30;;;21.70;48.90;;;;;;5072029;28;20421;-84
2021/04/08 02:49:01;;;;;;;1.70;1.40;;;21.70;49.30;;;;;;5090899;28;20455;-84
2021/04/08 02:51:41;;;;;;;3.13;1.63;;;21.70;48.90;;;;;;5090173;28;20171;-84
2021/04/08 02:54:22;;;;;;;2.63;1.43;;;21.70;49.00;;;;;;5057713;28;20413;-85
2021/04/08 02:56:56;;;;;;;2.40;1.50;;;21.70;49.80;;;;;;5089409;28;20466;-84
2021/04/08 02:59:57;;;;;;;4.07;1.57;;;21.60;49.20;;;;;;5090683;28;20424;-84
2021/04/08 03:02:28;;;;;;;1.90;1.23;;;21.60;48.80;;;;;;5057174;28;20475;-84
2021/04/08 03:04:57;;;;;;;2.40;1.53;;;21.60;48.90;;;;;;5071933;28;20456;-85
2021/04/08 03:07:29;;;;;;;2.73;1.73;;;21.60;49.20;;;;;;5089036;28;20404;-84
2021/04/08 03:09:57;;;;;;;2.00;1.63;;;21.60;48.80;;;;;;5071510;28;20405;-86
2021/04/08 03:12:25;;;;;;;1.93;1.50;;;21.60;48.90;;;;;;5071870;28;20408;-85
2021/04/08 03:15:02;;;;;;;2.13;1.53;;;21.60;48.90;;;;;;5089458;28;20822;-85
2021/04/08 03:17:34;;;;;;;3.20;1.63;;;21.60;48.80;;;;;;5070597;28;20539;-85
2021/04/08 03:20:01;;;;;;;2.40;1.80;;;21.70;48.90;;;;;;5072405;28;20397;-85
2021/04/08 03:22:28;;;;;;;2.67;1.30;;;21.60;48.80;;;;;;5089528;28;20880;-85
2021/04/08 03:24:56;;;;;;;1.63;1.37;;;21.70;49.40;;;;;;5071565;28;20542;-85
2021/04/08 03:27:24;;;;;;;3.77;1.63;;;21.60;48.80;;;;;;5088881;28;20436;-85
2021/04/08 03:30:41;;;;;;;2.33;1.40;;;21.70;48.80;;;;;;5087919;28;20409;-84
2021/04/08 03:33:08;;;;;;;2.03;1.30;;;21.70;48.70;;;;;;5089422;28;20448;-85
2021/04/08 03:35:35;;;;;;;2.03;1.83;;;21.60;48.70;;;;;;5088203;28;20404;-84
2021/04/08 03:38:01;;;;;;;1.77;1.53;;;21.60;48.90;;;;;;5070578;28;20420;-84
2021/04/08 03:40:27;;;;;;;2.27;1.70;;;21.60;48.80;;;;;;5070646;28;20500;-84
2021/04/08 03:42:56;;;;;;;2.23;1.30;;;21.60;49.20;;;;;;5088672;28;20408;-85
2021/04/08 03:45:22;;;;;;;2.17;1.57;;;21.70;48.90;;;;;;5086569;28;20420;-85
2021/04/08 03:47:49;;;;;;;2.07;1.50;;;21.60;49.60;;;;;;5087974;28;20409;-85
2021/04/08 03:50:16;;;;;;;2.50;1.77;;;21.70;49.00;;;;;;5086523;28;20184;-85
2021/04/08 03:52:44;;;;;;;2.50;1.87;;;21.60;48.80;;;;;;5068508;28;20390;-85
2021/04/08 03:55:11;;;;;;;1.57;1.33;;;21.60;48.70;;;;;;5050308;28;20919;-85
2021/04/08 03:57:40;;;;;;;2.93;1.80;;;21.60;48.80;;;;;;5068248;28;20416;-85
2021/04/08 04:00:12;;;;;;;3.20;1.87;;;21.60;48.80;;;;;;5050167;28;20414;-85
2021/04/08 04:02:42;;;;;;;1.93;1.40;;;21.60;48.90;;;;;;5049667;28;20438;-85
2021/04/08 04:05:11;;;;;;;2.20;1.43;;;21.60;48.90;;;;;;5050124;28;20422;-85
2021/04/08 04:07:40;;;;;;;2.27;1.67;;;21.60;49.90;;;;;;5066983;28;20419;-85
2021/04/08 04:10:06;;;;;;;2.37;1.60;;;21.60;48.90;;;;;;5069913;28;20436;-85
2021/04/08 04:12:35;;;;;;;1.97;1.60;;;21.60;48.90;;;;;;5070092;28;20416;-85
2021/04/08 04:15:09;;;;;;;2.50;1.60;;;21.60;48.90;;;;;;5070998;28;20448;-84
2021/04/08 04:17:35;;;;;;;2.00;1.47;;;21.60;48.80;;;;;;5053355;28;20420;-85
2021/04/08 04:20:04;;;;;;;1.50;1.30;;;21.60;49.40;;;;;;5051063;28;20433;-85
2021/04/08 04:22:29;;;;;;;1.63;1.20;;;21.50;48.90;;;;;;5069080;28;20483;-85
2021/04/08 04:24:55;;;;;;;2.10;1.50;;;21.50;49.40;;;;;;5069284;28;20954;-84
2021/04/08 04:27:21;;;;;;;2.60;1.60;;;21.50;49.80;;;;;;5068679;28;20178;-85
2021/04/08 04:29:46;;;;;;;1.57;1.47;;;21.50;49.20;;;;;;5067953;28;20175;-85
2021/04/08 04:32:13;;;;;;;1.97;1.67;;;21.50;49.40;;;;;;5067258;28;20238;-85
2021/04/08 04:34:43;;;;;;;2.50;1.73;;;21.40;49.00;;;;;;5050263;28;20206;-85
2021/04/08 04:37:14;;;;;;;1.97;1.50;;;21.40;49.10;;;;;;5067681;28;20464;-85
2021/04/08 04:39:40;;;;;;;1.60;1.30;;;21.80;49.60;;;;;;5049829;28;20414;-85
2021/04/08 04:42:07;;;;;;;4.53;1.37;;;21.40;49.60;;;;;;5068027;28;20413;-85
2021/04/08 04:44:34;;;;;;;1.70;1.23;;;21.40;49.00;;;;;;5050736;28;20601;-86
2021/04/08 04:47:01;;;;;;;1.80;1.40;;;21.40;49.00;;;;;;5050365;28;20451;-85
2021/04/08 04:49:28;;;;;;;2.27;1.30;;;21.40;49.20;;;;;;5050013;28;20911;-85
2021/04/08 04:51:54;;;;;;;2.23;1.40;;;21.40;49.20;;;;;;5050760;28;20418;-85
2021/04/08 04:54:20;;;;;;;2.07;1.23;;;21.40;49.30;;;;;;5050097;28;20441;-85
2021/04/08 04:56:46;;;;;;;1.60;1.10;;;21.50;49.40;;;;;;5067658;28;20258;-85
2021/04/08 04:59:13;;;;;;;1.53;1.00;;;21.40;49.90;;;;;;5050115;28;20464;-85
2021/04/08 05:01:39;;;;;;;2.50;1.40;;;21.50;49.40;;;;;;5049636;28;20183;-85
2021/04/08 05:04:05;;;;;;;3.23;1.70;;;21.50;49.60;;;;;;5067577;28;20819;-85
2021/04/08 05:06:30;;;;;;;3.20;1.27;;;21.00;49.10;;;;;;5066571;28;20175;-85
2021/04/08 05:08:56;;;;;;;3.00;1.43;;;21.50;49.20;;;;;;5067920;28;20167;-85
2021/04/08 05:11:22;;;;;;;1.70;1.30;;;21.50;49.80;;;;;;5067464;28;20182;-86
2021/04/08 05:13:50;;;;;;;2.57;1.60;;;21.50;49.50;;;;;;5053373;28;20181;-85
2021/04/08 05:16:15;;;;;;;1.27;1.10;;;21.60;48.80;;;;;;5070212;28;20183;-85
2021/04/08 05:18:41;;;;;;;2.17;1.40;;;21.60;49.00;;;;;;5070770;28;20421;-84
2021/04/08 05:21:07;;;;;;;2.00;1.20;;;21.60;49.60;;;;;;5069689;28;20174;-84
2021/04/08 05:23:33;;;;;;;2.40;1.47;;;21.60;49.40;;;;;;5087074;28;20190;-84
2021/04/08 05:25:59;;;;;;;1.70;1.30;;;21.60;49.30;;;;;;5070133;28;20424;-85
2021/04/08 05:28:24;;;;;;;3.47;1.30;;;21.60;49.40;;;;;;5088073;28;20269;-85
2021/04/08 05:30:50;;;;;;;1.50;1.10;;;21.60;49.00;;;;;;5069665;28;20167;-84
2021/04/08 05:33:16;;;;;;;1.53;1.13;;;21.60;48.80;;;;;;5090453;28;20166;-85
2021/04/08 05:35:42;;;;;;;1.50;1.20;;;21.70;48.80;;;;;;5091318;28;20170;-86
2021/04/08 05:38:08;;;;;;;3.53;1.67;;;21.70;49.30;;;;;;5073284;28;20171;-85
2021/04/08 05:40:34;;;;;;;2.90;1.23;;;21.70;48.60;;;;;;5056904;28;20199;-85
2021/04/08 05:43:00;;;;;;;2.53;1.20;;;21.60;48.70;;;;;;5056593;28;21004;-84
2021/04/08 05:45:27;;;;;;;3.17;1.83;;;21.70;48.90;;;;;;5072934;28;20238;-84
2021/04/08 05:47:54;;;;;;;2.60;1.60;;;21.60;48.80;;;;;;5091237;28;20229;-85
2021/04/08 05:50:22;;;;;;;2.10;1.37;;;21.60;48.40;;;;;;5091283;28;20409;-85
2021/04/08 05:52:48;;;;;;;2.37;1.10;;;21.60;48.80;;;;;;5090502;28;20416;-84
2021/04/08 05:55:14;;;;;;;2.63;1.30;;;21.60;49.00;;;;;;5073335;28;20440;-84
2021/04/08 05:58:35;;;;;;;1.70;1.20;;;21.60;49.00;;;;;;5074204;28;20583;-86
2021/04/08 06:01:03;;;;;;;1.53;1.00;;;21.60;48.20;;;;;;4995080;28;20468;-84
2021/04/08 06:03:29;;;;;;;1.80;1.13;;;21.60;48.50;;;;;;5059169;28;20461;-84
2021/04/08 06:05:55;;;;;;;2.10;1.30;;;21.60;49.20;;;;;;5075277;28;20421;-83
2021/04/08 06:08:27;;;;;;;2.23;1.30;;;21.60;49.20;;;;;;5093463;28;20175;-83
2021/04/08 06:10:55;;;;;;;2.90;1.53;;;21.60;48.70;;;;;;5058875;28;20174;-84
2021/04/08 06:13:22;;;;;;;1.30;1.10;;;21.60;48.40;;;;;;5075437;28;20429;-84
2021/04/08 06:15:47;;;;;;;2.00;1.30;;;21.60;49.10;;;;;;5074697;28;20918;-85
2021/04/08 06:18:13;;;;;;;1.60;1.40;;;21.60;49.00;;;;;;5091802;28;20431;-84
2021/04/08 06:20:39;;;;;;;1.60;1.10;;;21.60;49.10;;;;;;5074692;28;20431;-83
2021/04/08 06:23:07;;;;;;;2.13;1.20;;;21.60;49.20;;;;;;5074514;28;20198;-84
2021/04/08 06:25:57;;;;;;;1.73;1.00;;;21.60;48.90;;;;;;5092276;28;20408;-84
2021/04/08 06:28:24;;;;;;;1.77;1.20;;;21.60;48.40;;;;;;5091771;28;20922;-84
2021/04/08 06:30:53;;;;;;;1.30;1.07;;;21.70;48.70;;;;;;5075900;28;20409;-84
2021/04/08 06:33:19;;;;;;;1.43;1.03;;;21.60;48.80;;;;;;5075107;28;20421;-84
2021/04/08 06:35:44;;;;;;;2.40;1.30;;;21.70;49.50;;;;;;5077843;28;20420;-85
2021/04/08 06:38:10;;;;;;;1.13;0.93;;;21.70;49.30;;;;;;5091675;28;20186;-84
2021/04/08 06:40:39;;;;;;;1.87;1.20;;;21.50;48.90;;;;;;5073247;28;20186;-83
2021/04/08 06:43:09;;;;;;;3.83;1.40;;;21.70;49.00;;;;;;5090551;28;20262;-84
2021/04/08 06:45:36;;;;;;;1.30;1.10;;;21.70;48.60;;;;;;5073119;28;20432;-85
2021/04/08 06:48:02;;;;;;;2.27;1.27;;;21.70;48.50;;;;;;5091010;28;20412;-84
2021/04/08 06:50:34;;;;;;;1.63;1.50;;;21.70;49.20;;;;;;5072929;28;20916;-83
2021/04/08 06:53:06;;;;;;;1.93;1.30;;;21.80;48.70;;;;;;5073395;28;20170;-84
2021/04/08 06:55:33;;;;;;;1.67;1.37;;;21.80;48.70;;;;;;5073854;28;20417;-83
2021/04/08 06:58:00;;;;;;;2.40;1.20;;;21.80;48.50;;;;;;5073230;28;20424;-84
2021/04/08 07:00:26;;;;;;;1.73;1.30;;;21.80;48.70;;;;;;5090937;28;20400;-84
2021/04/08 07:02:52;;;;;;;1.40;1.07;;;21.80;48.70;;;;;;5091477;28;20405;-84
2021/04/08 07:05:18;;;;;;;2.17;1.40;;;21.80;48.80;;;;;;5072818;28;20400;-84
2021/04/08 07:07:48;;;;;;;1.20;1.00;;;21.80;49.30;;;;;;5055211;28;20760;-88
2021/04/08 07:10:14;;;;;;;1.40;1.10;;;21.70;48.30;;;;;;5069053;28;20416;-88
2021/04/08 07:12:40;;;;;;;2.20;1.07;;;21.80;48.80;;;;;;5068261;28;20911;-86
2021/04/08 07:15:07;;;;;;;1.10;0.90;;;21.80;48.60;;;;;;5085815;28;20409;-86
2021/04/08 07:17:33;;;;;;;2.57;1.20;;;21.90;48.60;;;;;;5086640;28;20456;-85
2021/04/08 07:19:59;;;;;;;1.97;0.90;;;21.90;48.60;;;;;;5068210;28;20416;-85
2021/04/08 07:22:26;;;;;;;1.77;1.27;;;21.90;48.90;;;;;;5085640;28;20416;-86
2021/04/08 07:24:52;;;;;;;2.90;1.23;;;21.90;48.30;;;;;;5085993;28;20197;-85
2021/04/08 07:27:21;;;;;;;3.20;1.30;;;22.00;48.60;;;;;;5085942;28;20412;-85
2021/04/08 07:29:49;;;;;;;1.50;1.30;;;22.00;48.40;;;;;;5090072;28;20412;-86
2021/04/08 07:32:29;;;;;;;1.73;1.20;;;22.00;48.80;;;;;;5070591;28;20413;-86
2021/04/08 07:35:15;;;;;;;1.87;1.30;;;22.10;48.30;;;;;;5071651;28;20420;-85
2021/04/08 07:37:43;;;;;;;1.53;1.30;;;22.10;48.30;;;;;;5090038;28;20878;-85
2021/04/08 07:40:19;;;;;;;2.00;1.13;;;22.10;48.50;;;;;;5086947;28;20416;-85
2021/04/08 07:42:45;;;;;;;2.30;1.27;;;22.10;48.40;;;;;;5091431;28;20925;-85
2021/04/08 07:45:20;;;;;;;2.40;1.10;;;22.10;48.50;;;;;;5071225;28;20419;-86
2021/04/08 07:47:59;;;;;;;1.70;1.10;;;22.10;48.40;;;;;;5086702;28;20443;-86
2021/04/08 07:50:28;;;;;;;2.40;1.10;;;22.10;48.30;;;;;;5086956;28;20404;-85
2021/04/08 07:52:58;;;;;;;2.37;1.63;;;22.10;48.40;;;;;;5071269;28;20424;-83
2021/04/08 07:55:34;;;;;;;2.17;1.47;;;22.10;48.70;;;;;;5089815;28;20404;-82
2021/04/08 07:58:23;;;;;;;2.50;1.10;;;22.30;48.50;;;;;;5089089;28;20415;-82
2021/04/08 08:00:51;;;;;;;5.13;1.30;;;22.20;48.70;;;;;;4989283;28;20460;-81
2021/04/08 08:03:20;;;;;;;1.50;1.10;;;22.20;48.60;;;;;;4988745;28;20457;-82
2021/04/08 08:05:47;;;;;;;2.70;1.40;;;22.20;48.90;;;;;;4988195;28;20418;-82
2021/04/08 08:08:16;;;;;;;2.20;1.20;;;22.20;48.90;;;;;;4988883;28;20413;-82
2021/04/08 08:10:54;;;;;;;2.20;1.23;;;22.20;48.40;;;;;;4972777;28;20424;-81
2021/04/08 08:13:36;;;;;;;2.50;1.20;;;22.20;48.50;;;;;;4972966;28;20409;-82
2021/04/08 08:16:04;;;;;;;2.70;1.70;;;22.30;48.30;;;;;;5004525;28;20440;-82
2021/04/08 08:18:37;;;;;;;1.93;1.17;;;22.20;48.50;;;;;;5004318;28;20461;-82
2021/04/08 08:21:11;;;;;;;2.13;1.10;;;22.30;48.40;;;;;;4972198;28;20484;-82
2021/04/08 08:23:46;;;;;;;2.80;1.20;;;22.30;48.30;;;;;;4972229;28;20532;-81
2021/04/08 08:26:33;;;;;;;2.50;1.37;;;22.30;48.30;;;;;;4992078;28;20404;-81
2021/04/08 08:29:11;;;;;;;1.67;1.07;;;22.30;48.30;;;;;;4989781;28;20401;-81
2021/04/08 08:31:52;;;;;;;1.10;0.93;;;22.30;48.70;;;;;;5006936;28;20421;-82
2021/04/08 08:34:31;;;;;;;1.60;1.00;;;22.30;48.30;;;;;;4975161;28;20818;-82
2021/04/08 08:37:00;;;;;;;2.30;1.20;;;22.30;48.30;;;;;;4991991;28;20953;-81
2021/04/08 08:42:51;;;;;;;1.60;1.00;;;22.40;48.30;;;;;;5092404;28;20380;-81
2021/04/08 08:45:21;;;;;;;2.23;1.10;;;22.30;48.40;;;;;;5072186;28;20425;-81
2021/04/08 08:47:51;;;;;;;2.37;1.00;;;22.40;48.30;;;;;;5072238;28;20413;-82
2021/04/08 08:50:18;;;;;;;1.77;1.20;;;22.40;48.60;;;;;;5089576;28;20419;-81
2021/04/08 08:52:52;;;;;;;1.23;1.00;;;22.40;48.50;;;;;;5072020;28;20470;-82
2021/04/08 08:55:21;;;;;;;1.70;1.00;;;22.40;48.30;;;;;;5090681;28;20401;-82
2021/04/08 08:57:51;;;;;;;1.93;1.10;;;22.40;48.30;;;;;;5089844;28;20439;-81
2021/04/08 09:00:20;;;;;;;2.13;1.33;;;22.40;48.50;;;;;;5055616;28;20480;-82
2021/04/08 09:02:48;;;;;;;2.20;1.07;;;22.40;48.50;;;;;;5054742;28;20433;-81
2021/04/08 09:05:18;;;;;;;1.30;0.90;;;22.40;48.50;;;;;;5071712;28;20412;-82
2021/04/08 09:07:51;;;;;;;2.40;1.30;;;22.40;48.50;;;;;;5091617;28;20420;-82
2021/04/08 09:10:31;;;;;;;2.93;1.10;;;22.40;48.50;;;;;;5059494;28;20930;-82
2021/04/08 09:13:01;;;;;;;1.70;0.97;;;22.40;48.30;;;;;;5076362;28;20426;-81
2021/04/08 09:15:30;;;;;;;1.80;1.13;;;22.40;48.40;;;;;;5093619;28;20409;-81
2021/04/08 09:17:56;;;;;;;1.60;1.20;;;22.40;48.50;;;;;;5075441;28;20416;-82
2021/04/08 09:20:23;;;;;;;1.30;1.07;;;22.40;49.20;;;;;;5075264;28;20420;-82
2021/04/08 09:22:56;;;;;;;1.20;0.90;;;22.40;48.70;;;;;;5092611;28;20408;-82
2021/04/08 09:25:30;;;;;;;1.53;1.10;;;22.80;48.90;;;;;;5092275;28;20400;-82
2021/04/08 09:27:59;;;;;;;1.90;1.10;;;22.40;48.50;;;;;;5092980;28;20421;-82
2021/04/08 09:30:54;;;;;;;1.60;1.10;;;22.40;48.30;;;;;;5074256;28;20440;-82
2021/04/08 09:33:42;;;;;;;3.10;1.00;;;22.40;48.20;;;;;;5093016;28;20483;-81
2021/04/08 09:36:27;;;;;;;1.50;1.00;;;22.40;48.60;;;;;;5074570;28;20424;-81
2021/04/08 09:38:55;;;;;;;3.10;1.20;;;22.40;48.30;;;;;;5074346;28;20834;-81
2021/04/08 09:41:49;;;;;;;2.30;0.90;;;22.40;48.30;;;;;;5092319;28;20408;-81
2021/04/08 09:44:19;;;;;;;1.43;0.80;;;22.40;48.20;;;;;;5092130;28;20448;-81
2021/04/08 09:47:02;;;;;;;1.33;0.80;;;22.40;48.40;;;;;;5074387;28;20420;-81
2021/04/08 09:49:44;;;;;;;2.17;0.90;;;22.20;48.10;;;;;;5075282;28;20408;-81
2021/04/08 09:52:14;;;;;;;1.40;1.03;;;22.40;48.30;;;;;;5074323;28;20462;-83
2021/04/08 09:54:42;;;;;;;1.37;0.80;;;22.40;48.50;;;;;;5073708;28;20909;-82
2021/04/08 09:57:09;;;;;;;1.13;1.00;;;22.40;48.50;;;;;;5091776;28;20408;-83
2021/04/08 09:59:57;;;;;;;1.33;1.07;;;22.40;48.50;;;;;;5092133;28;20416;-83
2021/04/08 10:02:24;;;;;;;2.53;1.00;;;22.40;48.40;;;;;;5073213;28;20413;-83
2021/04/08 10:05:09;;;;;;;3.70;1.30;;;22.40;48.50;;;;;;5073864;28;21011;-83
2021/04/08 10:08:06;;;;;;;1.27;0.80;;;22.40;48.40;;;;;;5088248;28;20424;-87
2021/04/08 10:10:37;;;;;;;1.60;1.00;;;22.20;48.50;;;;;;5052765;28;20444;-83
2021/04/08 10:13:21;;;;;;;2.20;1.07;;;22.40;48.60;;;;;;5074701;28;20441;-82
2021/04/08 10:15:49;;;;;;;1.60;1.20;;;22.40;48.70;;;;;;5074330;28;20421;-83
2021/04/08 10:18:20;;;;;;;1.10;0.80;;;22.40;48.60;;;;;;5072412;28;20417;-83
2021/04/08 10:20:48;;;;;;;1.57;0.93;;;22.40;48.40;;;;;;5070279;28;20504;-82
2021/04/08 10:23:14;;;;;;;1.70;1.20;;;22.40;48.30;;;;;;5089315;28;20448;-82
2021/04/08 10:25:40;;;;;;;1.20;0.90;;;22.40;48.50;;;;;;5072926;28;20998;-82
2021/04/08 10:28:07;;;;;;;1.93;1.30;;;22.40;48.60;;;;;;5081720;28;20426;-83
2021/04/08 10:30:40;;;;;;;1.00;0.90;;;22.40;48.60;;;;;;5098837;28;20420;-83
2021/04/08 10:33:17;;;;;;;1.77;1.30;;;22.50;48.50;;;;;;5061399;28;20425;-82
2021/04/08 10:35:43;;;;;;;2.00;1.00;;;22.60;48.60;;;;;;5056838;28;20977;-82
2021/04/08 10:38:10;;;;;;;1.10;0.93;;;22.50;48.70;;;;;;5073290;28;20439;-82
2021/04/08 10:40:36;;;;;;;1.40;1.03;;;22.50;48.30;;;;;;5095153;28;20495;-81
2021/04/08 10:43:15;;;;;;;1.00;0.90;;;22.50;48.70;;;;;;5107571;28;20412;-83
2021/04/08 10:45:58;;;;;;;4.30;1.00;;;22.50;48.50;;;;;;5094699;28;20431;-83
2021/04/08 10:48:27;;;;;;;1.37;1.10;;;22.50;48.40;;;;;;5095916;28;20408;-82
2021/04/08 10:50:54;;;;;;;1.97;1.00;;;22.50;48.40;;;;;;5091968;28;20473;-82
2021/04/08 10:53:22;;;;;;;3.33;1.10;;;22.50;48.60;;;;;;5107504;28;20442;-82
2021/04/08 10:55:52;;;;;;;1.90;0.93;;;22.50;48.50;;;;;;5095857;28;20416;-82
2021/04/08 10:58:26;;;;;;;1.57;0.90;;;22.50;48.60;;;;;;5100545;28;20412;-82
2021/04/08 11:00:55;;;;;;;1.50;0.80;;;22.50;48.30;;;;;;5073367;28;20428;-81
2021/04/08 11:03:23;;;;;;;1.30;0.97;;;22.50;48.30;;;;;;5072622;28;20526;-80
2021/04/08 11:05:50;;;;;;;1.40;1.10;;;22.50;48.40;;;;;;5079637;28;20460;-82
2021/04/08 11:08:16;;;;;;;1.73;1.00;;;22.50;48.20;;;;;;5100992;28;20480;-82
2021/04/08 11:10:42;;;;;;;1.60;0.90;;;22.50;48.80;;;;;;5096732;28;20433;-82
2021/04/08 11:13:10;;;;;;;1.07;0.90;;;22.50;48.20;;;;;;5089792;28;20417;-81
2021/04/08 11:15:38;;;;;;;1.50;1.00;;;22.50;48.40;;;;;;5083897;28;20403;-81
2021/04/08 11:18:13;;;;;;;2.37;1.43;;;22.50;48.20;;;;;;5082805;28;20412;-82
2021/04/08 11:20:42;;;;;;;3.43;1.20;;;22.50;48.30;;;;;;5100674;28;20424;-81
2021/04/08 11:23:15;;;;;;;3.00;1.57;;;22.50;48.30;;;;;;5107358;28;20495;-80
2021/04/08 11:25:42;;;;;;;4.10;1.93;;;22.50;48.20;;;;;;5095175;28;20508;-82
2021/04/08 11:28:09;;;;;;;4.60;1.87;;;22.50;48.10;;;;;;5102072;28;20409;-82
2021/04/08 11:30:45;;;;;;;4.43;1.93;;;22.50;48.70;;;;;;5094947;28;20429;-82
2021/04/08 11:33:22;;;;;;;3.53;1.90;;;22.40;48.90;;;;;;5085017;28;20467;-82
2021/04/08 11:35:48;;;;;;;3.50;1.83;;;22.50;48.20;;;;;;5100867;28;20431;-82
2021/04/08 11:38:23;;;;;;;4.77;2.10;;;22.50;48.70;;;;;;5097261;28;20409;-82
2021/04/08 11:41:07;;;;;;;5.90;2.27;;;22.50;48.10;;;;;;5092823;28;20497;-81
2021/04/08 11:43:50;;;;;;;4.77;2.23;;;22.50;48.20;;;;;;5074085;28;20452;-80
2021/04/08 11:46:34;;;;;;;6.40;2.27;;;22.50;48.20;;;;;;5082645;28;20455;-81
2021/04/08 11:49:13;;;;;;;4.13;2.20;;;22.50;48.80;;;;;;5096251;28;20416;-83
2021/04/08 11:51:39;;;;;;;6.67;2.17;;;22.50;48.20;;;;;;5078077;28;20938;-81
2021/04/08 11:54:16;;;;;;;2.70;1.60;;;22.50;48.60;;;;;;5104576;28;20426;-81
2021/04/08 11:56:43;;;;;;;10.37;3.20;;;22.50;48.20;;;;;;5096195;28;20415;-81
2021/04/08 11:59:23;;;;;;;4.63;3.03;;;22.50;48.30;;;;;;5091944;28;20429;-81
2021/04/08 12:01:54;;;;;;;5.53;2.27;;;22.60;48.20;;;;;;5095446;28;20523;-82
2021/04/08 12:04:25;;;;;;;5.80;2.13;;;22.60;48.20;;;;;;5107069;28;20451;-82
2021/04/08 12:06:57;;;;;;;4.90;2.27;;;22.60;48.20;;;;;;5072616;28;20436;-82
2021/04/08 12:09:39;;;;;;;5.57;2.27;;;22.60;48.30;;;;;;5074456;28;20784;-82
2021/04/08 12:12:06;;;;;;;3.97;1.73;;;22.60;48.20;;;;;;5094266;28;20416;-82
2021/04/08 12:15:13;;;;;;;2.87;1.97;;;22.60;48.50;;;;;;5104468;28;20469;-82
2021/04/08 12:17:39;;;;;;;2.67;2.47;;;22.60;48.20;;;;;;5069169;28;20428;-81
2021/04/08 12:20:19;;;;;;;4.77;2.00;;;22.50;48.70;;;;;;5071799;28;20428;-82
2021/04/08 12:22:45;;;;;;;2.97;2.03;;;22.60;48.30;;;;;;5103529;28;20554;-82
2021/04/08 12:25:18;;;;;;;5.80;2.30;;;22.60;48.60;;;;;;5091160;28;20456;-82
2021/04/08 12:27:45;;;;;;;5.13;2.30;;;22.60;48.20;;;;;;5087117;28;20918;-82
2021/04/08 12:30:12;;;;;;;4.60;2.10;;;22.60;48.30;;;;;;5099643;28;20451;-82
2021/04/08 12:32:38;;;;;;;3.23;1.83;;;22.60;48.30;;;;;;5083636;28;20498;-86
2021/04/08 12:35:07;;;;;;;4.40;2.27;;;22.60;48.80;;;;;;5074652;28;20428;-86
2021/04/08 12:37:33;;;;;;;5.60;2.33;;;22.60;48.30;;;;;;5103386;28;20476;-86
2021/04/08 12:43:21;;;;;;;6.40;2.43;;;22.60;48.20;;;;;;5092883;28;20224;-85
2021/04/08 12:49:09;;;;;;;6.63;2.10;;;22.60;48.20;;;;;;5093409;28;20446;-85
2021/04/08 12:51:34;;;;;;;3.47;1.60;;;22.60;49.30;;;;;;5076979;28;20468;-86
2021/04/08 12:54:00;;;;;;;3.30;1.93;;;22.60;48.60;;;;;;5102174;28;20169;-85
2021/04/08 12:56:26;;;;;;;4.03;2.17;;;22.70;48.70;;;;;;5102900;28;20181;-84
2021/04/08 12:58:52;;;;;;;6.00;2.63;;;22.60;48.60;;;;;;5073006;28;20174;-85
2021/04/08 13:01:19;;;;;;;4.43;2.43;;;22.60;48.40;;;;;;5093826;28;20173;-84
2021/04/08 13:03:44;;;;;;;4.80;1.70;;;22.60;48.70;;;;;;5079745;28;20507;-83
2021/04/08 13:06:11;;;;;;;3.07;1.60;;;22.60;48.40;;;;;;5063280;28;20269;-83
2021/04/08 13:08:37;;;;;;;6.40;1.83;;;22.50;48.10;;;;;;5078796;28;20174;-83
2021/04/08 13:11:05;;;;;;;4.00;1.90;;;22.50;48.30;;;;;;5090697;28;20449;-83
2021/04/08 13:13:31;;;;;;;2.93;1.80;;;22.50;48.20;;;;;;5079895;28;20438;-84
2021/04/08 13:15:56;;;;;;;2.70;1.77;;;22.50;48.60;;;;;;5077488;28;20451;-84